Time;durP1;ratioP1;P1;durP2;ratioP2;P2;SDS_P1;SDS_P2;PMS_P1;PMS_P2;Temp;Humidity;BMP_temperature;BMP_pressure;BME280_temperature;BME280_humidity;BME280_pressure;Samples;Min_cycle;Max_cycle;Signal;HPM_P1;HPM_P2
2022/08/05 00:01:19;;;;;;;6.88;2.03;;;24.00;99.90;;;;;;5013151;28;20049;-85
2022/08/05 00:03:44;;;;;;;4.63;2.25;;;23.90;99.90;;;;;;5012541;28;20101;-85
2022/08/05 00:06:10;;;;;;;3.67;1.98;;;23.80;99.90;;;;;;5013510;28;20148;-84
2022/08/05 00:08:38;;;;;;;9.07;2.80;;;23.80;99.90;;;;;;4997920;28;20589;-84
2022/08/05 00:11:09;;;;;;;3.28;2.10;;;23.80;99.90;;;;;;4993078;28;20022;-85
2022/08/05 00:13:43;;;;;;;6.97;2.67;;;23.80;99.90;;;;;;5007495;28;20497;-85
2022/08/05 00:16:12;;;;;;;4.65;2.03;;;23.80;99.90;;;;;;5009661;28;20026;-85
2022/08/05 00:18:40;;;;;;;8.45;2.22;;;23.80;99.90;;;;;;5009716;28;20065;-85
2022/08/05 00:21:05;;;;;;;6.95;2.45;;;23.80;99.90;;;;;;5013191;28;20287;-85
2022/08/05 00:23:31;;;;;;;5.93;2.17;;;23.80;99.90;;;;;;5011756;28;20018;-85
2022/08/05 00:25:57;;;;;;;4.85;2.08;;;23.70;99.90;;;;;;5005204;28;20082;-85
2022/08/05 00:28:22;;;;;;;7.53;2.17;;;23.80;99.90;;;;;;5000140;28;20022;-85
2022/08/05 00:30:48;;;;;;;7.10;2.30;;;23.80;99.90;;;;;;5005854;28;20390;-86
2022/08/05 00:33:41;;;;;;;5.72;2.55;;;23.70;99.90;;;;;;5012592;28;20022;-86
2022/08/05 00:36:07;;;;;;;2.35;1.85;;;23.70;99.90;;;;;;5010986;28;20025;-85
2022/08/05 00:38:32;;;;;;;5.28;2.83;;;23.70;99.90;;;;;;4992096;28;20386;-85
2022/08/05 00:41:05;;;;;;;10.50;2.80;;;23.70;99.90;;;;;;5011306;28;20025;-84
2022/08/05 00:43:30;;;;;;;10.02;2.60;;;23.70;99.90;;;;;;5012032;28;20029;-85
2022/08/05 00:45:56;;;;;;;9.10;3.20;;;23.70;99.90;;;;;;5012165;28;20030;-85
2022/08/05 00:48:33;;;;;;;10.82;2.63;;;23.60;99.90;;;;;;5002496;28;20348;-85
2022/08/05 00:51:01;;;;;;;4.40;2.38;;;23.60;99.90;;;;;;5012524;28;20030;-85
2022/08/05 00:53:27;;;;;;;8.48;2.20;;;23.60;99.90;;;;;;5012326;28;20036;-85
2022/08/05 00:56:06;;;;;;;7.35;2.08;;;23.60;99.90;;;;;;5012476;28;20359;-85
2022/08/05 00:58:32;;;;;;;11.13;2.35;;;23.50;99.90;;;;;;5003090;28;20033;-85
2022/08/05 01:00:57;;;;;;;13.27;2.85;;;23.50;99.90;;;;;;5009994;28;20477;-85
2022/08/05 01:04:14;;;;;;;6.88;2.20;;;23.50;99.90;;;;;;5011441;28;20030;-85
2022/08/05 01:06:39;;;;;;;7.25;2.33;;;23.50;99.90;;;;;;5012473;28;20501;-84
2022/08/05 01:09:05;;;;;;;3.20;2.28;;;23.40;99.90;;;;;;5012272;28;20041;-84
2022/08/05 01:11:42;;;;;;;3.60;2.00;;;23.40;99.90;;;;;;5012314;28;20033;-85
2022/08/05 01:14:40;;;;;;;2.08;1.85;;;23.30;99.90;;;;;;5002099;28;20030;-85
2022/08/05 01:17:10;;;;;;;9.35;2.65;;;23.30;99.90;;;;;;5010019;28;20454;-85
2022/08/05 01:19:39;;;;;;;3.30;2.20;;;23.40;99.90;;;;;;5011279;28;20080;-85
2022/08/05 01:22:45;;;;;;;13.60;2.20;;;23.40;99.90;;;;;;4999572;28;20049;-85
2022/08/05 01:25:29;;;;;;;6.00;2.50;;;23.40;99.90;;;;;;4993315;28;20030;-85
2022/08/05 01:28:32;;;;;;;5.10;2.15;;;23.40;99.90;;;;;;5009494;28;20047;-85
2022/08/05 01:31:03;;;;;;;6.80;2.50;;;23.30;99.90;;;;;;5005793;28;20018;-85
2022/08/05 01:34:09;;;;;;;9.35;2.60;;;23.30;99.90;;;;;;5014166;28;20018;-85
2022/08/05 01:36:46;;;;;;;6.45;2.67;;;23.30;99.90;;;;;;5011001;28;20022;-85
2022/08/05 01:39:13;;;;;;;3.67;2.25;;;23.30;99.90;;;;;;5011997;28;20041;-85
2022/08/05 01:41:41;;;;;;;9.95;2.80;;;23.20;99.90;;;;;;5000809;28;20022;-85
2022/08/05 01:44:20;;;;;;;5.20;2.63;;;23.20;99.90;;;;;;4997905;28;20471;-85
2022/08/05 01:46:47;;;;;;;6.45;2.50;;;23.30;99.90;;;;;;4999364;28;20026;-85
2022/08/05 01:49:18;;;;;;;7.10;2.70;;;23.30;99.90;;;;;;5015459;28;20033;-85
2022/08/05 01:51:49;;;;;;;5.05;2.78;;;23.20;99.90;;;;;;5007100;28;20075;-85
2022/08/05 01:54:16;;;;;;;10.90;2.13;;;23.20;99.90;;;;;;5003084;28;20590;-85
2022/08/05 01:56:43;;;;;;;5.57;2.35;;;23.20;99.90;;;;;;5014799;28;20030;-85
2022/08/05 01:59:14;;;;;;;8.10;2.03;;;23.10;99.90;;;;;;5009267;28;20022;-85
2022/08/05 02:01:52;;;;;;;5.35;2.08;;;23.10;99.90;;;;;;5013113;28;20022;-85
2022/08/05 02:04:19;;;;;;;8.05;2.47;;;23.10;99.90;;;;;;5010147;28;20037;-85
2022/08/05 02:06:45;;;;;;;8.35;2.45;;;23.10;99.90;;;;;;5012314;28;20485;-85
2022/08/05 02:09:21;;;;;;;6.80;2.60;;;23.10;99.90;;;;;;4999752;28;20018;-84
2022/08/05 02:12:10;;;;;;;7.30;2.63;;;23.20;99.90;;;;;;5008750;28;20052;-85
2022/08/05 02:15:21;;;;;;;8.25;2.88;;;23.20;99.90;;;;;;5011616;28;20030;-85
2022/08/05 02:17:51;;;;;;;7.75;2.65;;;23.20;99.90;;;;;;4966113;28;20027;-85
2022/08/05 02:20:20;;;;;;;5.43;2.45;;;23.10;99.90;;;;;;4974021;28;20991;-85
2022/08/05 02:26:14;;;;;;;12.73;4.05;;;23.10;99.90;;;;;;4970188;28;20042;-85
2022/08/05 02:28:42;;;;;;;11.50;4.13;;;22.90;99.90;;;;;;4939107;29;20028;-85
2022/08/05 02:31:32;;;;;;;11.93;4.13;;;22.80;99.90;;;;;;4974376;28;20110;-86
2022/08/05 02:34:02;;;;;;;9.68;4.53;;;22.50;99.90;;;;;;5011109;28;20026;-85
2022/08/05 02:36:30;;;;;;;10.25;4.57;;;22.30;99.90;;;;;;5015136;28;20033;-85
2022/08/05 02:38:56;;;;;;;15.55;6.68;;;22.20;99.90;;;;;;5013889;28;20022;-84
2022/08/05 02:41:24;;;;;;;15.07;5.65;;;22.00;99.90;;;;;;5003545;28;20061;-84
2022/08/05 02:43:51;;;;;;;11.45;5.43;;;21.90;99.90;;;;;;5001037;28;20034;-84
2022/08/05 02:46:48;;;;;;;16.23;6.63;;;21.80;99.90;;;;;;5001884;28;20156;-84
2022/08/05 02:49:15;;;;;;;18.35;6.10;;;21.60;99.90;;;;;;5006922;28;20500;-83
2022/08/05 02:51:42;;;;;;;18.15;6.00;;;21.50;99.90;;;;;;5015118;28;20042;-83
2022/08/05 02:54:41;;;;;;;22.23;7.45;;;21.40;99.90;;;;;;5008084;28;20022;-83
2022/08/05 02:57:10;;;;;;;15.57;7.22;;;21.40;99.90;;;;;;5001102;28;20112;-83
2022/08/05 02:59:36;;;;;;;15.77;8.57;;;21.30;99.90;;;;;;5006983;28;20030;-83
2022/08/05 03:02:08;;;;;;;19.00;7.72;;;21.30;99.90;;;;;;5011840;28;20492;-83
2022/08/05 03:04:35;;;;;;;23.63;8.70;;;21.20;99.90;;;;;;4997353;28;20018;-83
2022/08/05 03:07:03;;;;;;;15.00;7.95;;;21.20;99.90;;;;;;4996013;28;20018;-82
2022/08/05 03:09:29;;;;;;;16.25;8.25;;;21.10;99.90;;;;;;4998693;28;20390;-82
2022/08/05 03:12:00;;;;;;;15.40;10.48;;;21.10;99.90;;;;;;5008842;28;20356;-82
2022/08/05 03:14:26;;;;;;;24.42;10.15;;;21.20;99.90;;;;;;5000064;28;20044;-82
2022/08/05 03:16:51;;;;;;;20.02;11.43;;;21.10;99.90;;;;;;5009670;28;20030;-82
2022/08/05 03:19:17;;;;;;;23.58;11.50;;;21.10;99.90;;;;;;5008673;28;20030;-83
2022/08/05 03:21:44;;;;;;;18.52;10.68;;;21.00;99.90;;;;;;5001564;28;20509;-82
2022/08/05 03:24:10;;;;;;;22.38;12.32;;;21.00;99.90;;;;;;5013200;28;20504;-82
2022/08/05 03:26:36;;;;;;;20.33;11.68;;;20.90;99.90;;;;;;5012565;28;20125;-83
2022/08/05 03:29:03;;;;;;;20.42;13.30;;;21.00;99.90;;;;;;5001711;28;20084;-83
2022/08/05 03:31:29;;;;;;;24.42;13.10;;;20.90;99.90;;;;;;5012007;28;20026;-82
2022/08/05 03:34:03;;;;;;;25.77;13.43;;;20.90;99.90;;;;;;4999169;28;20411;-82
2022/08/05 03:36:30;;;;;;;28.17;13.75;;;20.80;99.90;;;;;;5007642;28;20393;-82
2022/08/05 03:38:56;;;;;;;20.45;13.55;;;20.80;99.90;;;;;;5004845;28;20041;-82
2022/08/05 03:41:22;;;;;;;25.67;14.05;;;20.70;99.90;;;;;;5002882;28;20419;-82
2022/08/05 03:43:52;;;;;;;20.95;13.52;;;20.70;99.90;;;;;;5009803;28;20022;-82
2022/08/05 03:46:17;;;;;;;24.58;12.57;;;20.60;99.90;;;;;;5004090;28;20022;-82
2022/08/05 03:48:46;;;;;;;19.98;12.98;;;20.60;99.90;;;;;;5009717;28;20422;-82
2022/08/05 03:51:17;;;;;;;29.38;14.38;;;20.50;99.90;;;;;;5011894;28;20030;-82
2022/08/05 03:54:05;;;;;;;24.35;13.48;;;20.50;99.90;;;;;;5004103;28;20021;-82
2022/08/05 03:56:45;;;;;;;23.80;14.20;;;20.50;99.90;;;;;;5004841;28;20049;-82
2022/08/05 03:59:31;;;;;;;30.45;15.77;;;20.50;99.90;;;;;;5003895;28;20112;-82
2022/08/05 04:02:01;;;;;;;19.58;12.90;;;20.60;99.90;;;;;;5009420;28;20029;-82
2022/08/05 04:04:30;;;;;;;17.38;12.48;;;20.50;99.90;;;;;;5013055;28;20022;-81
2022/08/05 04:06:57;;;;;;;18.27;12.45;;;20.50;99.90;;;;;;5011763;28;20030;-81
2022/08/05 04:09:30;;;;;;;15.68;10.13;;;20.60;99.90;;;;;;5013269;28;20044;-82
2022/08/05 04:11:56;;;;;;;19.80;11.18;;;20.50;99.90;;;;;;5009431;28;20484;-82
2022/08/05 04:14:25;;;;;;;13.50;8.88;;;20.60;99.90;;;;;;5013133;28;20034;-82
2022/08/05 04:16:52;;;;;;;17.45;10.60;;;20.60;99.90;;;;;;5010662;28;20042;-82
2022/08/05 04:19:19;;;;;;;20.00;10.10;;;20.60;99.90;;;;;;5011540;28;20030;-82
2022/08/05 04:21:44;;;;;;;17.33;8.20;;;20.50;99.90;;;;;;5000055;28;20060;-82
2022/08/05 04:24:10;;;;;;;16.23;9.80;;;20.60;99.90;;;;;;5008158;28;20489;-82
2022/08/05 04:26:39;;;;;;;9.90;7.60;;;20.60;99.90;;;;;;5013232;28;20486;-82
2022/08/05 04:29:05;;;;;;;13.85;7.90;;;20.60;99.90;;;;;;5010939;28;20066;-82
2022/08/05 04:31:31;;;;;;;21.38;10.70;;;20.70;99.90;;;;;;5006876;28;20077;-81
2022/08/05 04:33:57;;;;;;;17.85;9.43;;;20.70;99.90;;;;;;5010411;28;20129;-81
2022/08/05 04:36:25;;;;;;;15.32;7.90;;;20.70;99.90;;;;;;5010888;28;20034;-81
2022/08/05 04:38:53;;;;;;;11.15;8.75;;;20.70;99.90;;;;;;5011182;28;20022;-81
2022/08/05 04:41:26;;;;;;;15.82;8.93;;;20.70;99.90;;;;;;5010998;28;20478;-83
2022/08/05 04:43:52;;;;;;;18.58;8.45;;;20.60;99.90;;;;;;5001227;28;20014;-83
2022/08/05 04:46:19;;;;;;;13.20;7.30;;;20.70;99.90;;;;;;5007393;28;20026;-83
2022/08/05 04:48:45;;;;;;;10.18;5.00;;;20.70;99.90;;;;;;4999261;28;20018;-83
2022/08/05 04:51:21;;;;;;;12.63;5.35;;;20.60;99.90;;;;;;5003039;28;20022;-83
2022/08/05 04:53:47;;;;;;;19.27;5.95;;;20.60;99.90;;;;;;5006717;28;20029;-85
2022/08/05 04:56:13;;;;;;;12.32;5.70;;;20.50;99.90;;;;;;5004479;28;20054;-86
2022/08/05 04:59:07;;;;;;;15.07;4.90;;;20.60;99.90;;;;;;5010005;28;20025;-87
2022/08/05 05:01:33;;;;;;;16.58;7.20;;;20.60;99.90;;;;;;5008168;28;20029;-87
2022/08/05 05:04:17;;;;;;;11.77;5.50;;;20.60;99.90;;;;;;5012073;28;20026;-86
2022/08/05 05:06:42;;;;;;;9.68;5.70;;;20.60;99.90;;;;;;5012007;28;20026;-85
2022/08/05 05:09:10;;;;;;;12.75;6.55;;;20.60;99.90;;;;;;5004619;28;20189;-84
2022/08/05 05:11:35;;;;;;;16.88;7.25;;;20.50;99.90;;;;;;5012271;28;20026;-84
2022/08/05 05:14:02;;;;;;;13.55;7.47;;;20.60;99.90;;;;;;5005150;28;20038;-84
2022/08/05 05:16:28;;;;;;;17.85;7.80;;;20.60;99.90;;;;;;5016562;28;20026;-83
2022/08/05 05:18:53;;;;;;;11.95;6.25;;;20.50;99.90;;;;;;5016223;28;20020;-83
2022/08/05 05:21:21;;;;;;;11.50;5.28;;;20.30;99.90;;;;;;5016921;28;20157;-83
2022/08/05 05:23:47;;;;;;;9.50;6.00;;;20.30;99.90;;;;;;5016328;28;20046;-83
2022/08/05 05:26:13;;;;;;;13.40;5.80;;;20.30;99.90;;;;;;5015040;28;20049;-83
2022/08/05 05:28:38;;;;;;;9.88;5.65;;;20.40;99.90;;;;;;5010704;28;20018;-83
2022/08/05 05:31:08;;;;;;;7.40;4.75;;;20.40;99.90;;;;;;5009258;28;20387;-83
2022/08/05 05:33:34;;;;;;;7.15;4.40;;;20.30;99.90;;;;;;5010952;28;20433;-83
2022/08/05 05:36:01;;;;;;;6.90;4.63;;;20.30;99.90;;;;;;4998897;28;20122;-83
2022/08/05 05:38:27;;;;;;;12.38;5.90;;;20.40;99.90;;;;;;4995631;28;20081;-83
2022/08/05 05:40:55;;;;;;;7.03;4.05;;;20.40;99.90;;;;;;4995768;28;20022;-83
2022/08/05 05:43:21;;;;;;;13.13;5.82;;;20.50;99.90;;;;;;4996798;28;20073;-83
2022/08/05 05:45:56;;;;;;;10.40;5.72;;;20.50;99.90;;;;;;5001604;28;20037;-83
2022/08/05 05:48:21;;;;;;;11.43;5.33;;;20.50;99.90;;;;;;5005657;28;20457;-84
2022/08/05 05:51:10;;;;;;;7.55;5.03;;;20.50;99.90;;;;;;5009245;28;20085;-83
2022/08/05 05:53:36;;;;;;;8.45;5.93;;;20.50;99.90;;;;;;4996456;28;20022;-83
2022/08/05 05:56:31;;;;;;;5.28;3.63;;;20.50;99.90;;;;;;5012230;28;20088;-83
2022/08/05 05:58:57;;;;;;;17.00;6.68;;;20.50;99.90;;;;;;5014807;28;20105;-83
2022/08/05 06:01:45;;;;;;;7.90;6.10;;;20.50;99.90;;;;;;5015855;28;20513;-83
2022/08/05 06:04:12;;;;;;;8.52;6.20;;;20.50;99.90;;;;;;5015368;28;20386;-83
2022/08/05 06:06:43;;;;;;;18.90;7.13;;;20.50;99.90;;;;;;5016084;28;20030;-83
2022/08/05 06:09:09;;;;;;;9.40;5.68;;;20.50;99.90;;;;;;5015651;28;20381;-83
2022/08/05 06:11:41;;;;;;;10.40;6.57;;;20.60;99.90;;;;;;5015868;28;20024;-84
2022/08/05 06:14:06;;;;;;;11.50;5.85;;;20.60;99.90;;;;;;4998821;28;20029;-83
2022/08/05 06:16:32;;;;;;;7.88;4.90;;;20.70;99.90;;;;;;5015618;28;20363;-83
2022/08/05 06:19:22;;;;;;;10.32;5.75;;;20.70;99.90;;;;;;5014861;28;20512;-83
2022/08/05 06:21:47;;;;;;;15.90;8.32;;;20.70;99.90;;;;;;5015759;28;20018;-83
2022/08/05 06:24:21;;;;;;;10.40;6.05;;;20.70;99.90;;;;;;4996754;28;20085;-83
2022/08/05 06:26:49;;;;;;;9.98;6.28;;;20.70;99.90;;;;;;5001503;28;20052;-83
2022/08/05 06:29:15;;;;;;;16.67;8.27;;;20.70;99.90;;;;;;5014521;28;20133;-83
2022/08/05 06:31:40;;;;;;;11.35;5.80;;;20.80;99.90;;;;;;5009999;28;20026;-83
2022/08/05 06:34:24;;;;;;;15.80;8.27;;;20.70;99.90;;;;;;4995830;28;20031;-83
2022/08/05 06:36:50;;;;;;;17.20;7.90;;;20.80;99.90;;;;;;4999266;28;20114;-84
2022/08/05 06:39:19;;;;;;;9.88;5.35;;;20.80;99.90;;;;;;5014767;28;20109;-85
2022/08/05 06:41:45;;;;;;;12.65;5.38;;;20.70;99.90;;;;;;4998335;28;20080;-85
2022/08/05 06:44:10;;;;;;;17.73;7.43;;;20.70;99.90;;;;;;4997163;28;20532;-84
2022/08/05 06:46:39;;;;;;;13.13;7.95;;;20.80;99.90;;;;;;5014929;28;20030;-84
2022/08/05 06:49:05;;;;;;;16.33;7.75;;;20.80;99.90;;;;;;5014962;28;20520;-84
2022/08/05 06:51:31;;;;;;;12.02;7.28;;;20.80;99.90;;;;;;5013308;28;20025;-85
2022/08/05 06:53:59;;;;;;;9.73;6.03;;;20.70;99.90;;;;;;5014760;28;20037;-85
2022/08/05 06:56:24;;;;;;;8.38;4.65;;;20.60;99.90;;;;;;5013201;28;20025;-85
2022/08/05 06:58:50;;;;;;;9.40;5.00;;;20.70;99.90;;;;;;5013472;28;20026;-86
2022/08/05 07:01:22;;;;;;;9.63;4.55;;;20.70;99.90;;;;;;5012279;28;20053;-86
2022/08/05 07:03:47;;;;;;;16.50;8.98;;;20.70;99.90;;;;;;4994904;28;20029;-86
2022/08/05 07:06:24;;;;;;;9.13;4.88;;;20.70;99.90;;;;;;5013207;28;20026;-87
2022/08/05 07:08:50;;;;;;;7.15;4.15;;;20.70;99.90;;;;;;5013519;28;20389;-88
2022/08/05 07:11:18;;;;;;;6.70;4.35;;;20.70;99.90;;;;;;5013881;28;20022;-88
2022/08/05 07:19:12;;;;;;;5.13;3.70;;;20.80;99.90;;;;;;5014037;28;20441;-87
2022/08/05 07:22:10;;;;;;;10.77;5.40;;;20.90;99.90;;;;;;5014094;28;20053;-87
2022/08/05 07:24:36;;;;;;;10.32;6.18;;;20.90;99.90;;;;;;5013590;28;20083;-86
2022/08/05 07:27:01;;;;;;;7.90;4.68;;;20.90;99.90;;;;;;5011929;28;20061;-87
2022/08/05 07:30:10;;;;;;;11.05;4.65;;;20.90;99.90;;;;;;5013084;28;20848;-86
2022/08/05 07:32:37;;;;;;;9.48;5.80;;;21.00;99.90;;;;;;4993675;28;20422;-85
2022/08/05 07:35:10;;;;;;;14.82;7.22;;;21.00;99.90;;;;;;4993509;28;20032;-85
2022/08/05 07:37:55;;;;;;;11.85;7.15;;;21.00;99.90;;;;;;4991466;28;20030;-85
2022/08/05 07:40:21;;;;;;;15.93;9.83;;;21.00;99.90;;;;;;4995785;28;20050;-84
2022/08/05 07:43:12;;;;;;;8.00;5.20;;;20.90;99.90;;;;;;5012692;28;20756;-84
2022/08/05 07:45:38;;;;;;;12.82;8.70;;;20.90;99.90;;;;;;5011732;28;20021;-84
2022/08/05 07:48:04;;;;;;;12.90;6.07;;;20.90;99.90;;;;;;5009089;28;20084;-84
2022/08/05 07:50:59;;;;;;;12.98;6.80;;;20.90;99.90;;;;;;4996660;28;20063;-84
2022/08/05 07:53:24;;;;;;;20.27;8.95;;;20.90;99.90;;;;;;4998128;28;20026;-83
2022/08/05 07:55:50;;;;;;;15.48;7.82;;;20.90;99.90;;;;;;5008491;28;20038;-83
2022/08/05 07:58:15;;;;;;;15.32;6.15;;;20.80;99.90;;;;;;5011694;28;20057;-83
2022/08/05 08:00:42;;;;;;;15.43;6.53;;;20.80;99.90;;;;;;5013108;28;20891;-83
2022/08/05 08:03:11;;;;;;;14.77;7.95;;;20.80;99.90;;;;;;5012670;28;20030;-83
2022/08/05 08:05:38;;;;;;;6.90;5.47;;;20.80;99.90;;;;;;5012093;28;20040;-83
2022/08/05 08:08:03;;;;;;;11.23;5.45;;;20.80;99.90;;;;;;5011868;28;20084;-84
2022/08/05 08:10:36;;;;;;;8.45;5.55;;;20.80;99.90;;;;;;5012435;28;20458;-83
2022/08/05 08:13:04;;;;;;;13.85;7.05;;;20.80;99.90;;;;;;4993240;28;20478;-83
2022/08/05 08:15:30;;;;;;;14.63;8.85;;;20.90;99.90;;;;;;4992582;28;20482;-83
2022/08/05 08:17:57;;;;;;;11.77;7.28;;;20.90;99.90;;;;;;4993022;28;20089;-83
2022/08/05 08:20:24;;;;;;;10.40;6.72;;;21.00;99.90;;;;;;4993175;28;20043;-83
2022/08/05 08:23:01;;;;;;;12.18;6.90;;;21.00;99.90;;;;;;4993018;28;20057;-84
2022/08/05 08:25:27;;;;;;;9.45;6.63;;;21.10;99.90;;;;;;4992303;28;20026;-83
2022/08/05 08:27:55;;;;;;;11.30;6.95;;;21.20;99.90;;;;;;4957952;28;1020839;-84
2022/08/05 08:30:20;;;;;;;7.75;5.05;;;21.20;99.90;;;;;;4993606;28;20034;-83
2022/08/05 08:32:47;;;;;;;12.30;6.50;;;21.30;99.90;;;;;;4992213;28;20500;-83
2022/08/05 08:35:13;;;;;;;12.63;5.28;;;21.30;99.90;;;;;;4993105;28;20081;-83
2022/08/05 08:37:39;;;;;;;16.67;7.53;;;21.40;99.90;;;;;;4993046;28;20022;-83
2022/08/05 08:40:05;;;;;;;13.63;8.27;;;21.40;99.90;;;;;;4993140;28;20088;-83
2022/08/05 08:42:31;;;;;;;16.77;6.35;;;21.50;99.90;;;;;;4992972;28;20502;-83
2022/08/05 08:44:57;;;;;;;13.18;6.65;;;21.50;99.90;;;;;;4991575;28;20031;-83
2022/08/05 08:47:26;;;;;;;19.55;8.57;;;21.50;99.90;;;;;;4998094;28;20030;-83
2022/08/05 08:49:53;;;;;;;10.63;8.10;;;21.50;99.90;;;;;;5003218;28;20100;-83
2022/08/05 08:52:24;;;;;;;26.05;9.05;;;21.50;99.90;;;;;;5011013;28;20034;-83
2022/08/05 08:54:53;;;;;;;14.25;8.05;;;21.50;99.90;;;;;;5010677;28;20022;-83
2022/08/05 08:57:24;;;;;;;16.20;7.93;;;21.50;99.90;;;;;;5011940;28;20155;-83
2022/08/05 08:59:50;;;;;;;13.88;7.82;;;21.50;99.90;;;;;;5011817;28;20029;-83
2022/08/05 09:02:22;;;;;;;12.60;7.45;;;21.40;99.90;;;;;;5012607;28;20041;-83
2022/08/05 09:04:47;;;;;;;12.50;8.63;;;21.50;99.90;;;;;;5011674;28;20073;-83
2022/08/05 09:07:13;;;;;;;20.35;8.73;;;21.50;99.90;;;;;;5013163;28;20054;-83
2022/08/05 09:09:39;;;;;;;12.07;7.80;;;21.50;99.90;;;;;;5012989;28;20029;-82
2022/08/05 09:12:09;;;;;;;12.75;7.65;;;21.50;99.90;;;;;;5012546;28;20030;-82
2022/08/05 09:14:35;;;;;;;12.15;7.20;;;21.50;99.90;;;;;;5012258;28;20041;-82
2022/08/05 09:17:05;;;;;;;12.90;6.38;;;21.60;99.90;;;;;;5012549;28;20026;-82
2022/08/05 09:19:32;;;;;;;13.82;7.38;;;21.70;99.90;;;;;;5003108;28;20065;-82
2022/08/05 09:21:58;;;;;;;17.10;7.95;;;21.80;99.90;;;;;;5012556;28;20022;-82
2022/08/05 09:24:23;;;;;;;16.35;6.30;;;21.80;99.90;;;;;;5011480;28;20667;-82
2022/08/05 09:26:50;;;;;;;14.55;7.28;;;21.80;99.90;;;;;;5004570;28;20075;-82
2022/08/05 09:29:18;;;;;;;11.38;5.75;;;21.80;99.90;;;;;;5010490;28;21643;-82
2022/08/05 09:32:02;;;;;;;14.00;6.40;;;21.80;99.90;;;;;;5012181;28;20037;-82
2022/08/05 09:34:54;;;;;;;14.43;6.30;;;21.90;99.90;;;;;;5012733;28;20030;-82
2022/08/05 09:37:23;;;;;;;7.88;5.10;;;22.00;99.90;;;;;;5011589;28;20048;-82
2022/08/05 09:39:55;;;;;;;8.90;5.72;;;22.10;99.90;;;;;;5002886;28;20035;-82
2022/08/05 09:42:22;;;;;;;15.85;6.72;;;22.10;99.90;;;;;;4996574;28;20040;-81
2022/08/05 09:44:49;;;;;;;8.50;4.80;;;22.20;99.90;;;;;;5012512;28;20493;-82
2022/08/05 09:47:17;;;;;;;11.15;4.90;;;22.20;99.90;;;;;;5011297;28;20034;-81
2022/08/05 09:49:51;;;;;;;12.70;7.00;;;22.20;99.90;;;;;;5012438;28;20076;-83
2022/08/05 09:52:17;;;;;;;12.60;5.93;;;22.20;99.90;;;;;;5008673;28;20026;-82
2022/08/05 09:54:56;;;;;;;13.43;5.93;;;22.20;99.90;;;;;;5005707;28;20532;-82
2022/08/05 09:57:44;;;;;;;16.23;7.13;;;22.30;99.90;;;;;;5003846;28;20026;-82
2022/08/05 10:00:12;;;;;;;10.27;5.72;;;22.30;99.90;;;;;;4994089;28;20040;-82
2022/08/05 10:02:41;;;;;;;9.90;5.22;;;22.40;99.90;;;;;;5010742;28;20030;-82
2022/08/05 10:05:13;;;;;;;9.40;5.30;;;22.50;99.90;;;;;;5014162;28;20038;-82
2022/08/05 10:07:50;;;;;;;13.65;6.68;;;22.60;99.90;;;;;;5014756;28;20097;-83
2022/08/05 10:10:21;;;;;;;9.65;5.82;;;22.70;99.90;;;;;;5014021;28;20026;-82
2022/08/05 10:12:54;;;;;;;7.00;4.53;;;22.90;99.90;;;;;;5008219;28;20027;-82
2022/08/05 10:15:25;;;;;;;6.22;4.93;;;23.00;99.90;;;;;;5010972;28;20120;-82
2022/08/05 10:18:10;;;;;;;11.13;6.13;;;23.10;99.90;;;;;;5000845;28;20068;-82
2022/08/05 10:20:45;;;;;;;10.85;4.97;;;23.20;99.90;;;;;;5000700;28;20111;-82
2022/08/05 10:23:19;;;;;;;7.10;4.68;;;23.30;99.90;;;;;;5008664;28;20034;-82
2022/08/05 10:25:45;;;;;;;8.15;4.45;;;23.30;99.90;;;;;;5014187;28;20041;-81
2022/08/05 10:28:10;;;;;;;9.82;3.13;;;23.50;99.90;;;;;;5000190;28;20041;-82
2022/08/05 10:30:37;;;;;;;5.57;3.17;;;23.70;99.90;;;;;;5008761;28;20083;-81
2022/08/05 10:33:04;;;;;;;6.28;2.90;;;23.90;99.90;;;;;;5014607;28;20053;-81
2022/08/05 10:35:32;;;;;;;6.10;2.70;;;23.90;99.90;;;;;;5014674;28;20038;-81
2022/08/05 10:37:59;;;;;;;7.45;3.30;;;24.00;99.90;;;;;;5014299;28;20076;-82
2022/08/05 10:40:25;;;;;;;5.47;3.22;;;24.10;99.90;;;;;;5014973;28;20117;-81
2022/08/05 10:42:52;;;;;;;4.15;3.42;;;24.20;99.90;;;;;;5003660;28;20494;-81
2022/08/05 10:45:25;;;;;;;5.93;3.63;;;24.20;99.90;;;;;;5012737;28;20022;-81
2022/08/05 10:47:51;;;;;;;7.78;3.03;;;24.20;99.90;;;;;;5004610;28;20022;-81
2022/08/05 10:50:17;;;;;;;4.20;2.97;;;24.20;99.90;;;;;;5006348;28;20038;-81
2022/08/05 10:52:56;;;;;;;6.93;2.95;;;24.30;99.90;;;;;;4995427;28;20045;-81
2022/08/05 10:55:23;;;;;;;5.97;3.42;;;24.30;99.90;;;;;;5007263;28;20025;-81
2022/08/05 10:58:12;;;;;;;8.45;3.88;;;24.20;99.90;;;;;;5015191;28;20022;-80
2022/08/05 11:00:46;;;;;;;10.93;3.58;;;24.30;99.90;;;;;;5013556;28;20032;-81
2022/08/05 11:03:13;;;;;;;3.28;2.97;;;24.30;99.90;;;;;;5014922;28;20022;-81
2022/08/05 11:05:39;;;;;;;6.75;3.80;;;24.30;99.90;;;;;;5013900;28;20446;-80
2022/08/05 11:08:07;;;;;;;6.07;3.75;;;24.30;99.90;;;;;;5014714;28;20100;-80
2022/08/05 11:10:38;;;;;;;6.85;3.67;;;24.30;99.90;;;;;;5013142;28;20112;-81
2022/08/05 11:13:05;;;;;;;7.00;3.58;;;24.30;99.90;;;;;;5011062;28;20026;-81
2022/08/05 11:15:38;;;;;;;6.03;3.78;;;24.30;99.90;;;;;;5012225;28;20028;-81
2022/08/05 11:18:28;;;;;;;13.10;4.53;;;24.30;99.90;;;;;;5013793;28;20022;-81
2022/08/05 11:20:54;;;;;;;9.48;3.70;;;24.40;99.90;;;;;;5004822;28;20038;-81
2022/08/05 11:23:54;;;;;;;8.77;3.38;;;24.50;99.90;;;;;;5010166;28;20040;-81
2022/08/05 11:26:24;;;;;;;7.22;4.07;;;24.70;99.90;;;;;;5012339;28;20026;-81
2022/08/05 11:28:53;;;;;;;3.70;3.35;;;24.90;99.90;;;;;;5013662;28;20033;-81
2022/08/05 11:31:22;;;;;;;6.45;3.58;;;25.00;99.90;;;;;;5012585;28;20026;-82
2022/08/05 11:33:48;;;;;;;5.28;3.70;;;25.10;99.90;;;;;;5013133;28;20061;-81
2022/08/05 11:36:17;;;;;;;8.18;3.95;;;25.10;99.90;;;;;;5012387;28;20053;-82
2022/08/05 11:38:42;;;;;;;6.93;3.50;;;25.20;99.90;;;;;;5012446;28;20033;-81
2022/08/05 11:41:30;;;;;;;4.55;3.05;;;25.20;99.90;;;;;;5014249;28;20018;-81
2022/08/05 11:44:02;;;;;;;9.93;4.03;;;25.30;99.90;;;;;;5013872;28;20076;-81
2022/08/05 11:46:31;;;;;;;4.15;3.20;;;25.30;99.90;;;;;;5011799;28;20050;-82
2022/08/05 11:48:58;;;;;;;5.80;2.80;;;25.40;99.90;;;;;;5013468;28;20057;-81
2022/08/05 11:51:27;;;;;;;5.82;3.30;;;25.40;99.90;;;;;;5004861;28;20378;-82
2022/08/05 11:53:54;;;;;;;8.43;3.47;;;25.30;99.90;;;;;;5011400;28;20026;-81
2022/08/05 11:56:21;;;;;;;4.28;2.67;;;25.30;99.90;;;;;;5002400;28;20455;-82
2022/08/05 11:58:48;;;;;;;9.50;3.83;;;25.30;99.90;;;;;;4993162;28;20478;-82
2022/08/05 12:01:16;;;;;;;5.82;3.67;;;25.20;99.90;;;;;;4998194;28;20035;-81
2022/08/05 12:04:02;;;;;;;8.73;3.85;;;25.10;99.90;;;;;;5013828;28;20018;-82
2022/08/05 12:06:28;;;;;;;6.75;4.15;;;25.10;99.90;;;;;;5013377;28;20046;-81
2022/08/05 12:08:56;;;;;;;9.45;4.78;;;25.00;99.90;;;;;;5012000;28;20030;-82
2022/08/05 12:11:29;;;;;;;6.90;4.57;;;24.90;99.90;;;;;;5013724;28;20033;-81
2022/08/05 12:14:02;;;;;;;8.93;5.47;;;25.00;99.90;;;;;;5012342;28;20034;-82
2022/08/05 12:16:34;;;;;;;15.23;5.63;;;25.00;99.90;;;;;;5012270;28;20420;-82
2022/08/05 12:19:01;;;;;;;26.45;8.30;;;25.00;99.90;;;;;;5011640;28;20025;-82
2022/08/05 12:21:41;;;;;;;14.23;6.55;;;24.90;99.90;;;;;;5013678;28;20032;-81
2022/08/05 12:24:30;;;;;;;10.10;7.20;;;24.90;99.90;;;;;;5012704;28;20040;-81
2022/08/05 12:26:57;;;;;;;15.82;8.27;;;24.80;99.90;;;;;;5013244;28;20115;-82
2022/08/05 12:29:24;;;;;;;13.43;8.57;;;24.70;99.90;;;;;;5012065;28;20026;-81
2022/08/05 12:31:53;;;;;;;14.75;8.18;;;24.60;99.90;;;;;;5013215;28;20028;-81
2022/08/05 12:34:27;;;;;;;12.50;7.53;;;24.50;99.90;;;;;;5010396;28;20654;-81
2022/08/05 12:36:54;;;;;;;14.25;10.80;;;24.50;99.90;;;;;;4994388;28;20141;-82
2022/08/05 12:39:22;;;;;;;13.55;7.85;;;24.40;99.90;;;;;;5005604;28;20030;-81
2022/08/05 12:41:48;;;;;;;16.17;11.30;;;24.30;99.90;;;;;;5005835;28;20092;-81
2022/08/05 12:44:16;;;;;;;18.10;14.18;;;24.30;99.90;;;;;;4998092;28;20105;-81
2022/08/05 12:46:59;;;;;;;22.52;14.90;;;24.30;99.90;;;;;;5001415;28;21074;-82
2022/08/05 12:49:24;;;;;;;27.65;19.65;;;24.30;99.90;;;;;;4993471;28;20050;-82
2022/08/05 12:51:54;;;;;;;29.75;18.25;;;24.20;99.90;;;;;;4997874;28;20050;-81
2022/08/05 12:54:27;;;;;;;17.02;14.95;;;24.10;99.90;;;;;;4992281;28;20483;-81
2022/08/05 12:56:59;;;;;;;23.05;17.30;;;24.00;99.90;;;;;;5006883;28;20501;-82
2022/08/05 12:59:32;;;;;;;27.38;19.00;;;23.90;99.90;;;;;;5013107;28;20439;-81
2022/08/05 13:02:00;;;;;;;21.45;15.82;;;23.80;99.90;;;;;;5012748;28;20068;-82
2022/08/05 13:04:41;;;;;;;26.00;20.50;;;23.70;99.90;;;;;;5012897;28;20034;-83
2022/08/05 13:07:11;;;;;;;37.67;30.13;;;23.60;99.90;;;;;;5012037;28;20477;-84
2022/08/05 13:09:49;;;;;;;37.85;29.33;;;23.40;99.90;;;;;;5013152;28;20022;-82